Lakewood, Iowa
Current Conditions -  °F | °C
As of 3:54 AM on Saturday 25 Oct 2014 (Local Time) from KDSM Reporting Station
Clear Clear  
Wind Chill: 53°   Ceiling: Unl
Heat Index: 53°   Visibility: 10mi
Dew Point: 50°   Wind: 6mph
Humidity: 89%   Direction: 340°NNW
Pressure: 29.99"   Gusts: NA
Location:  41.4552°N, 93.6809°W
Report Text: KDSM 250854Z 34005KT 10SM CLR 12/10 A2999 RMK AO2 SLP155 T01170100 50008 $
Loading
Personal Weather Stations






























Interactive Weather Map
Tropical Storm Tracking
New forecast layout! Learn more

10-Day Weather Forecast

Advertisements
Track Severe Weather on mobile